sensor_id;sensor_type;location;lat;lon;timestamp;temperature;humidity
22108;DHT22;11220;48.812;9.128;2024-03-23T00:53:28;18.50;76.90
22108;DHT22;11220;48.812;9.128;2024-03-23T00:55:53;18.50;76.90
22108;DHT22;11220;48.812;9.128;2024-03-23T00:58:19;18.40;76.90
22108;DHT22;11220;48.812;9.128;2024-03-23T01:00:45;18.50;76.90
22108;DHT22;11220;48.812;9.128;2024-03-23T01:03:10;18.50;76.90
22108;DHT22;11220;48.812;9.128;2024-03-23T01:05:36;18.50;77.00
22108;DHT22;11220;48.812;9.128;2024-03-23T01:08:01;18.40;77.00
22108;DHT22;11220;48.812;9.128;2024-03-23T01:10:27;18.50;77.10
22108;DHT22;11220;48.812;9.128;2024-03-23T01:12:53;18.40;77.00
22108;DHT22;11220;48.812;9.128;2024-03-23T01:15:18;18.40;77.10
22108;DHT22;11220;48.812;9.128;2024-03-23T01:17:44;18.50;78.10
22108;DHT22;11220;48.812;9.128;2024-03-23T01:20:09;18.40;77.10
22108;DHT22;11220;48.812;9.128;2024-03-23T01:22:35;18.40;77.20
22108;DHT22;11220;48.812;9.128;2024-03-23T01:25:01;18.40;77.10
22108;DHT22;11220;48.812;9.128;2024-03-23T01:27:26;18.40;77.10
22108;DHT22;11220;48.812;9.128;2024-03-23T01:29:52;18.40;77.10
22108;DHT22;11220;48.812;9.128;2024-03-23T01:32:18;18.40;77.10
22108;DHT22;11220;48.812;9.128;2024-03-23T01:34:44;18.40;77.10
22108;DHT22;11220;48.812;9.128;2024-03-23T01:37:10;18.40;77.10
22108;DHT22;11220;48.812;9.128;2024-03-23T01:39:35;18.40;77.20
22108;DHT22;11220;48.812;9.128;2024-03-23T01:42:01;18.40;77.10
22108;DHT22;11220;48.812;9.128;2024-03-23T01:44:26;18.40;77.10
22108;DHT22;11220;48.812;9.128;2024-03-23T01:46:52;18.40;77.10
22108;DHT22;11220;48.812;9.128;2024-03-23T01:49:17;18.40;77.10
22108;DHT22;11220;48.812;9.128;2024-03-23T01:51:43;18.40;77.10
22108;DHT22;11220;48.812;9.128;2024-03-23T01:54:10;18.40;77.10
22108;DHT22;11220;48.812;9.128;2024-03-23T01:56:36;18.40;77.10
22108;DHT22;11220;48.812;9.128;2024-03-23T01:59:05;18.40;77.00
22108;DHT22;11220;48.812;9.128;2024-03-23T02:01:31;18.40;77.00
22108;DHT22;11220;48.812;9.128;2024-03-23T02:03:57;18.40;77.00
22108;DHT22;11220;48.812;9.128;2024-03-23T02:06:24;18.40;77.00
22108;DHT22;11220;48.812;9.128;2024-03-23T02:08:50;18.30;76.90
22108;DHT22;11220;48.812;9.128;2024-03-23T02:11:16;18.40;77.00
22108;DHT22;11220;48.812;9.128;2024-03-23T02:13:41;18.40;76.90
22108;DHT22;11220;48.812;9.128;2024-03-23T02:16:07;18.40;76.90
22108;DHT22;11220;48.812;9.128;2024-03-23T02:18:33;18.40;77.00
22108;DHT22;11220;48.812;9.128;2024-03-23T02:20:59;18.30;76.90
22108;DHT22;11220;48.812;9.128;2024-03-23T02:23:24;18.30;76.90
22108;DHT22;11220;48.812;9.128;2024-03-23T02:25:50;18.40;76.90
22108;DHT22;11220;48.812;9.128;2024-03-23T02:28:16;18.40;76.90
22108;DHT22;11220;48.812;9.128;2024-03-23T02:30:42;18.40;76.90
22108;DHT22;11220;48.812;9.128;2024-03-23T02:33:08;18.30;76.80
22108;DHT22;11220;48.812;9.128;2024-03-23T02:35:33;18.30;76.90
22108;DHT22;11220;48.812;9.128;2024-03-23T02:37:59;18.40;76.90
22108;DHT22;11220;48.812;9.128;2024-03-23T02:40:25;18.30;76.90
22108;DHT22;11220;48.812;9.128;2024-03-23T02:42:51;18.30;76.90
22108;DHT22;11220;48.812;9.128;2024-03-23T02:45:16;18.30;76.80
22108;DHT22;11220;48.812;9.128;2024-03-23T02:47:42;18.30;76.90
22108;DHT22;11220;48.812;9.128;2024-03-23T02:50:08;18.30;76.90
22108;DHT22;11220;48.812;9.128;2024-03-23T02:52:34;18.30;76.90
22108;DHT22;11220;48.812;9.128;2024-03-23T02:55:00;18.30;76.80
22108;DHT22;11220;48.812;9.128;2024-03-23T02:57:27;19.20;77.30
22108;DHT22;11220;48.812;9.128;2024-03-23T02:59:53;18.30;76.80
22108;DHT22;11220;48.812;9.128;2024-03-23T03:02:19;18.30;76.80
22108;DHT22;11220;48.812;9.128;2024-03-23T03:04:45;18.30;76.80
22108;DHT22;11220;48.812;9.128;2024-03-23T03:07:10;18.30;76.80
22108;DHT22;11220;48.812;9.128;2024-03-23T03:09:36;18.30;76.80
22108;DHT22;11220;48.812;9.128;2024-03-23T03:12:05;18.30;76.80
22108;DHT22;11220;48.812;9.128;2024-03-23T03:14:30;18.30;76.80
22108;DHT22;11220;48.812;9.128;2024-03-23T03:16:56;18.40;76.90
22108;DHT22;11220;48.812;9.128;2024-03-23T03:19:21;18.30;76.80
22108;DHT22;11220;48.812;9.128;2024-03-23T03:21:47;18.30;76.80
22108;DHT22;11220;48.812;9.128;2024-03-23T03:24:13;18.30;76.80
22108;DHT22;11220;48.812;9.128;2024-03-23T03:26:39;18.30;76.80
22108;DHT22;11220;48.812;9.128;2024-03-23T03:29:04;18.30;76.80
22108;DHT22;11220;48.812;9.128;2024-03-23T03:31:30;18.30;76.80
22108;DHT22;11220;48.812;9.128;2024-03-23T03:33:55;18.30;76.80
22108;DHT22;11220;48.812;9.128;2024-03-23T03:36:21;18.30;76.80
22108;DHT22;11220;48.812;9.128;2024-03-23T03:38:46;18.30;76.80
22108;DHT22;11220;48.812;9.128;2024-03-23T03:41:12;18.30;76.80
22108;DHT22;11220;48.812;9.128;2024-03-23T03:43:37;18.30;76.80
22108;DHT22;11220;48.812;9.128;2024-03-23T03:46:03;18.30;76.80
22108;DHT22;11220;48.812;9.128;2024-03-23T03:48:29;18.30;76.80
22108;DHT22;11220;48.812;9.128;2024-03-23T03:50:55;18.30;76.90
22108;DHT22;11220;48.812;9.128;2024-03-23T03:53:20;18.30;76.80
22108;DHT22;11220;48.812;9.128;2024-03-23T03:55:46;18.50;76.90
22108;DHT22;11220;48.812;9.128;2024-03-23T03:58:12;18.30;76.80
22108;DHT22;11220;48.812;9.128;2024-03-23T04:00:37;18.30;76.90
22108;DHT22;11220;48.812;9.128;2024-03-23T04:03:03;18.30;76.80
22108;DHT22;11220;48.812;9.128;2024-03-23T04:05:28;18.30;76.90
22108;DHT22;11220;48.812;9.128;2024-03-23T04:07:54;18.20;76.80
22108;DHT22;11220;48.812;9.128;2024-03-23T04:10:20;19.00;77.30
22108;DHT22;11220;48.812;9.128;2024-03-23T04:12:46;18.30;77.80
22108;DHT22;11220;48.812;9.128;2024-03-23T04:15:12;18.30;76.90
22108;DHT22;11220;48.812;9.128;2024-03-23T04:17:38;18.30;76.90
22108;DHT22;11220;48.812;9.128;2024-03-23T04:20:03;18.30;76.90
22108;DHT22;11220;48.812;9.128;2024-03-23T04:22:34;18.30;76.90
22108;DHT22;11220;48.812;9.128;2024-03-23T04:25:00;18.30;76.90
22108;DHT22;11220;48.812;9.128;2024-03-23T04:27:28;18.30;76.90
22108;DHT22;11220;48.812;9.128;2024-03-23T04:29:54;18.20;76.90
22108;DHT22;11220;48.812;9.128;2024-03-23T04:32:19;18.20;76.80
22108;DHT22;11220;48.812;9.128;2024-03-23T04:34:45;18.30;76.90
22108;DHT22;11220;48.812;9.128;2024-03-23T04:37:11;18.20;76.80
22108;DHT22;11220;48.812;9.128;2024-03-23T04:39:37;18.20;76.80
22108;DHT22;11220;48.812;9.128;2024-03-23T04:42:03;18.30;77.00
22108;DHT22;11220;48.812;9.128;2024-03-23T04:44:29;18.30;76.90
22108;DHT22;11220;48.812;9.128;2024-03-23T04:46:54;18.30;76.90
22108;DHT22;11220;48.812;9.128;2024-03-23T04:49:20;18.20;76.80
22108;DHT22;11220;48.812;9.128;2024-03-23T04:51:47;18.20;76.80
22108;DHT22;11220;48.812;9.128;2024-03-23T04:54:12;18.20;76.80
22108;DHT22;11220;48.812;9.128;2024-03-23T04:56:38;18.20;76.90
22108;DHT22;11220;48.812;9.128;2024-03-23T04:59:04;18.20;76.90
22108;DHT22;11220;48.812;9.128;2024-03-23T05:01:31;18.20;76.90
22108;DHT22;11220;48.812;9.128;2024-03-23T05:03:57;18.20;77.00
22108;DHT22;11220;48.812;9.128;2024-03-23T05:06:23;18.20;77.10
22108;DHT22;11220;48.812;9.128;2024-03-23T05:08:48;18.20;77.00
22108;DHT22;11220;48.812;9.128;2024-03-23T05:11:15;18.20;77.00
22108;DHT22;11220;48.812;9.128;2024-03-23T05:13:41;18.20;77.00
22108;DHT22;11220;48.812;9.128;2024-03-23T05:16:07;18.20;77.00
22108;DHT22;11220;48.812;9.128;2024-03-23T05:18:33;18.20;77.00
22108;DHT22;11220;48.812;9.128;2024-03-23T05:20:59;18.20;77.00
22108;DHT22;11220;48.812;9.128;2024-03-23T05:23:25;18.20;77.10
22108;DHT22;11220;48.812;9.128;2024-03-23T05:25:51;18.20;77.00
22108;DHT22;11220;48.812;9.128;2024-03-23T05:28:20;18.20;77.00
22108;DHT22;11220;48.812;9.128;2024-03-23T05:30:52;18.20;77.10
22108;DHT22;11220;48.812;9.128;2024-03-23T05:33:19;18.20;77.00
22108;DHT22;11220;48.812;9.128;2024-03-23T05:35:45;18.20;77.00
22108;DHT22;11220;48.812;9.128;2024-03-23T05:38:10;18.20;77.00
22108;DHT22;11220;48.812;9.128;2024-03-23T05:40:36;18.20;76.90
22108;DHT22;11220;48.812;9.128;2024-03-23T05:43:03;18.20;76.80
22108;DHT22;11220;48.812;9.128;2024-03-23T05:45:29;18.20;76.80
22108;DHT22;11220;48.812;9.128;2024-03-23T05:47:54;18.20;76.70
22108;DHT22;11220;48.812;9.128;2024-03-23T05:50:22;18.20;76.70
22108;DHT22;11220;48.812;9.128;2024-03-23T05:52:48;18.20;76.70
22108;DHT22;11220;48.812;9.128;2024-03-23T05:55:14;18.20;76.70
22108;DHT22;11220;48.812;9.128;2024-03-23T05:57:39;18.20;76.70
22108;DHT22;11220;48.812;9.128;2024-03-23T06:00:05;18.20;76.60
22108;DHT22;11220;48.812;9.128;2024-03-23T06:02:35;18.20;76.60
22108;DHT22;11220;48.812;9.128;2024-03-23T06:05:01;18.30;76.60
22108;DHT22;11220;48.812;9.128;2024-03-23T06:07:27;18.30;76.60
22108;DHT22;11220;48.812;9.128;2024-03-23T06:09:53;18.30;76.60
22108;DHT22;11220;48.812;9.128;2024-03-23T06:12:18;18.30;76.50
22108;DHT22;11220;48.812;9.128;2024-03-23T06:14:44;18.30;76.50
22108;DHT22;11220;48.812;9.128;2024-03-23T06:17:09;18.20;74.90
22108;DHT22;11220;48.812;9.128;2024-03-23T06:19:35;18.10;72.10
22108;DHT22;11220;48.812;9.128;2024-03-23T06:22:00;18.00;73.00
22108;DHT22;11220;48.812;9.128;2024-03-23T06:24:26;17.90;74.30
22108;DHT22;11220;48.812;9.128;2024-03-23T06:26:51;17.90;75.30
22108;DHT22;11220;48.812;9.128;2024-03-23T06:29:17;17.90;75.90
22108;DHT22;11220;48.812;9.128;2024-03-23T06:31:42;18.00;76.40
22108;DHT22;11220;48.812;9.128;2024-03-23T06:34:08;18.00;76.50
22108;DHT22;11220;48.812;9.128;2024-03-23T06:36:34;18.10;76.60
22108;DHT22;11220;48.812;9.128;2024-03-23T06:38:59;18.10;76.60
22108;DHT22;11220;48.812;9.128;2024-03-23T06:41:25;18.20;76.70
22108;DHT22;11220;48.812;9.128;2024-03-23T06:43:51;18.30;76.60
22108;DHT22;11220;48.812;9.128;2024-03-23T06:46:17;18.50;76.60
22108;DHT22;11220;48.812;9.128;2024-03-23T06:48:42;18.30;76.30
22108;DHT22;11220;48.812;9.128;2024-03-23T06:51:09;18.40;76.20
22108;DHT22;11220;48.812;9.128;2024-03-23T06:53:35;18.40;76.20
22108;DHT22;11220;48.812;9.128;2024-03-23T06:56:00;18.40;75.90
22108;DHT22;11220;48.812;9.128;2024-03-23T06:58:26;18.50;75.90
22108;DHT22;11220;48.812;9.128;2024-03-23T07:00:52;18.50;75.80
22108;DHT22;11220;48.812;9.128;2024-03-23T07:03:17;18.50;75.80
22108;DHT22;11220;48.812;9.128;2024-03-23T07:05:43;18.60;76.30
22108;DHT22;11220;48.812;9.128;2024-03-23T07:08:09;18.50;75.60
22108;DHT22;11220;48.812;9.128;2024-03-23T07:10:34;18.60;75.70
22108;DHT22;11220;48.812;9.128;2024-03-23T07:13:01;18.60;75.60
22108;DHT22;11220;48.812;9.128;2024-03-23T07:15:26;18.60;75.50
22108;DHT22;11220;48.812;9.128;2024-03-23T07:17:52;18.70;75.60
22108;DHT22;11220;48.812;9.128;2024-03-23T07:20:17;18.70;75.60
22108;DHT22;11220;48.812;9.128;2024-03-23T07:22:45;18.70;75.50
22108;DHT22;11220;48.812;9.128;2024-03-23T07:25:11;18.70;75.50
22108;DHT22;11220;48.812;9.128;2024-03-23T07:27:36;18.70;75.50
22108;DHT22;11220;48.812;9.128;2024-03-23T07:30:02;18.70;75.40
22108;DHT22;11220;48.812;9.128;2024-03-23T07:32:27;18.70;75.40
22108;DHT22;11220;48.812;9.128;2024-03-23T07:34:53;18.70;75.40
22108;DHT22;11220;48.812;9.128;2024-03-23T07:37:19;18.80;75.50
22108;DHT22;11220;48.812;9.128;2024-03-23T07:39:44;18.70;75.40
22108;DHT22;11220;48.812;9.128;2024-03-23T07:42:09;18.70;75.40
22108;DHT22;11220;48.812;9.128;2024-03-23T07:44:35;18.70;75.40
22108;DHT22;11220;48.812;9.128;2024-03-23T07:47:01;18.70;75.40
22108;DHT22;11220;48.812;9.128;2024-03-23T07:49:27;18.90;75.60
22108;DHT22;11220;48.812;9.128;2024-03-23T07:51:52;18.70;75.60
22108;DHT22;11220;48.812;9.128;2024-03-23T07:54:18;18.70;75.60
22108;DHT22;11220;48.812;9.128;2024-03-23T07:56:43;18.70;75.50
22108;DHT22;11220;48.812;9.128;2024-03-23T07:59:09;18.70;75.70
22108;DHT22;11220;48.812;9.128;2024-03-23T08:01:35;18.70;75.60
22108;DHT22;11220;48.812;9.128;2024-03-23T08:04:00;18.70;75.60
22108;DHT22;11220;48.812;9.128;2024-03-23T08:06:26;18.70;75.60
22108;DHT22;11220;48.812;9.128;2024-03-23T08:08:54;18.60;75.50
22108;DHT22;11220;48.812;9.128;2024-03-23T08:11:30;18.80;75.70
22108;DHT22;11220;48.812;9.128;2024-03-23T08:13:56;18.80;75.80
22108;DHT22;11220;48.812;9.128;2024-03-23T08:16:23;18.80;75.70
22108;DHT22;11220;48.812;9.128;2024-03-23T08:18:51;18.80;75.70
22108;DHT22;11220;48.812;9.128;2024-03-23T08:21:16;18.80;75.70
22108;DHT22;11220;48.812;9.128;2024-03-23T08:23:42;19.00;75.90
22108;DHT22;11220;48.812;9.128;2024-03-23T08:26:12;18.80;75.80
22108;DHT22;11220;48.812;9.128;2024-03-23T08:28:39;18.80;75.80
22108;DHT22;11220;48.812;9.128;2024-03-23T08:31:07;18.80;75.80
22108;DHT22;11220;48.812;9.128;2024-03-23T08:33:32;18.80;75.90
22108;DHT22;11220;48.812;9.128;2024-03-23T08:36:06;18.80;75.90
22108;DHT22;11220;48.812;9.128;2024-03-23T08:38:32;18.80;75.90
22108;DHT22;11220;48.812;9.128;2024-03-23T08:43:28;18.80;76.00
22108;DHT22;11220;48.812;9.128;2024-03-23T08:45:53;18.80;76.10
22108;DHT22;11220;48.812;9.128;2024-03-23T08:48:22;18.80;76.00
22108;DHT22;11220;48.812;9.128;2024-03-23T08:50:57;18.70;76.00
22108;DHT22;11220;48.812;9.128;2024-03-23T08:53:23;18.80;76.10
22108;DHT22;11220;48.812;9.128;2024-03-23T08:55:55;18.80;76.20
22108;DHT22;11220;48.812;9.128;2024-03-23T08:58:23;18.80;76.20
22108;DHT22;11220;48.812;9.128;2024-03-23T09:00:49;18.80;76.20
22108;DHT22;11220;48.812;9.128;2024-03-23T09:03:15;18.90;76.20
22108;DHT22;11220;48.812;9.128;2024-03-23T09:05:41;18.80;76.10
22108;DHT22;11220;48.812;9.128;2024-03-23T09:08:06;18.70;76.10
22108;DHT22;11220;48.812;9.128;2024-03-23T09:10:37;18.80;76.10
22108;DHT22;11220;48.812;9.128;2024-03-23T09:13:03;18.80;76.00
22108;DHT22;11220;48.812;9.128;2024-03-23T09:15:28;18.80;76.00
22108;DHT22;11220;48.812;9.128;2024-03-23T09:17:54;18.90;76.10
22108;DHT22;11220;48.812;9.128;2024-03-23T09:20:19;18.80;76.00
22108;DHT22;11220;48.812;9.128;2024-03-23T09:22:45;18.80;76.10
22108;DHT22;11220;48.812;9.128;2024-03-23T09:25:10;18.90;76.20
22108;DHT22;11220;48.812;9.128;2024-03-23T09:27:36;18.90;76.10
22108;DHT22;11220;48.812;9.128;2024-03-23T09:30:01;18.90;76.00
22108;DHT22;11220;48.812;9.128;2024-03-23T09:32:27;18.90;76.00
22108;DHT22;11220;48.812;9.128;2024-03-23T09:34:53;18.90;76.00
22108;DHT22;11220;48.812;9.128;2024-03-23T09:37:18;18.90;75.90
22108;DHT22;11220;48.812;9.128;2024-03-23T09:39:44;18.90;76.00
22108;DHT22;11220;48.812;9.128;2024-03-23T09:42:09;19.00;76.10
22108;DHT22;11220;48.812;9.128;2024-03-23T09:44:35;19.00;76.20
22108;DHT22;11220;48.812;9.128;2024-03-23T09:47:01;19.00;76.30
22108;DHT22;11220;48.812;9.128;2024-03-23T09:49:27;19.00;76.40
22108;DHT22;11220;48.812;9.128;2024-03-23T09:51:52;19.00;76.40
22108;DHT22;11220;48.812;9.128;2024-03-23T09:54:20;19.00;76.40
22108;DHT22;11220;48.812;9.128;2024-03-23T09:56:47;19.00;76.40
22108;DHT22;11220;48.812;9.128;2024-03-23T09:59:12;19.00;77.30
22108;DHT22;11220;48.812;9.128;2024-03-23T10:01:38;19.00;76.30
22108;DHT22;11220;48.812;9.128;2024-03-23T10:04:04;19.10;76.40
22108;DHT22;11220;48.812;9.128;2024-03-23T10:06:29;19.10;76.40
22108;DHT22;11220;48.812;9.128;2024-03-23T10:08:55;19.70;76.70
22108;DHT22;11220;48.812;9.128;2024-03-23T10:11:20;19.10;76.30
22108;DHT22;11220;48.812;9.128;2024-03-23T10:13:47;19.10;76.30
22108;DHT22;11220;48.812;9.128;2024-03-23T10:16:21;19.10;76.30
22108;DHT22;11220;48.812;9.128;2024-03-23T10:18:47;19.10;76.20
22108;DHT22;11220;48.812;9.128;2024-03-23T10:21:14;19.10;76.10
22108;DHT22;11220;48.812;9.128;2024-03-23T10:23:42;19.10;76.00
22108;DHT22;11220;48.812;9.128;2024-03-23T10:26:15;19.10;76.00
22108;DHT22;11220;48.812;9.128;2024-03-23T10:29:00;19.20;75.20
22108;DHT22;11220;48.812;9.128;2024-03-23T10:31:30;19.10;71.30
22108;DHT22;11220;48.812;9.128;2024-03-23T10:33:56;19.10;71.90
22108;DHT22;11220;48.812;9.128;2024-03-23T10:36:23;19.10;72.40
22108;DHT22;11220;48.812;9.128;2024-03-23T10:38:54;19.00;73.70
22108;DHT22;11220;48.812;9.128;2024-03-23T10:41:19;19.10;74.60
22108;DHT22;11220;48.812;9.128;2024-03-23T10:43:47;19.10;74.80
22108;DHT22;11220;48.812;9.128;2024-03-23T10:46:13;19.10;75.00
22108;DHT22;11220;48.812;9.128;2024-03-23T10:48:38;19.10;75.00
22108;DHT22;11220;48.812;9.128;2024-03-23T10:51:07;19.10;75.10
22108;DHT22;11220;48.812;9.128;2024-03-23T10:53:34;19.10;75.10
22108;DHT22;11220;48.812;9.128;2024-03-23T10:56:00;19.10;75.10
22108;DHT22;11220;48.812;9.128;2024-03-23T10:58:38;19.10;75.10
22108;DHT22;11220;48.812;9.128;2024-03-23T11:01:04;19.10;75.10
22108;DHT22;11220;48.812;9.128;2024-03-23T11:05:57;19.10;75.00
22108;DHT22;11220;48.812;9.128;2024-03-23T11:08:39;19.10;75.00
22108;DHT22;11220;48.812;9.128;2024-03-23T11:13:38;19.10;74.80
22108;DHT22;11220;48.812;9.128;2024-03-23T11:16:14;19.10;74.90
22108;DHT22;11220;48.812;9.128;2024-03-23T11:18:39;19.10;74.80
22108;DHT22;11220;48.812;9.128;2024-03-23T11:21:06;19.10;74.80
22108;DHT22;11220;48.812;9.128;2024-03-23T11:23:32;19.10;74.70
22108;DHT22;11220;48.812;9.128;2024-03-23T11:25:58;19.10;74.80
22108;DHT22;11220;48.812;9.128;2024-03-23T11:28:23;19.20;74.80
22108;DHT22;11220;48.812;9.128;2024-03-23T11:30:49;19.20;74.80
22108;DHT22;11220;48.812;9.128;2024-03-23T11:33:15;19.20;74.80
22108;DHT22;11220;48.812;9.128;2024-03-23T11:35:41;19.20;75.00
22108;DHT22;11220;48.812;9.128;2024-03-23T11:38:10;19.20;75.10
22108;DHT22;11220;48.812;9.128;2024-03-23T11:40:44;19.20;75.10
22108;DHT22;11220;48.812;9.128;2024-03-23T11:43:16;19.30;75.20
22108;DHT22;11220;48.812;9.128;2024-03-23T11:45:49;19.30;75.30
22108;DHT22;11220;48.812;9.128;2024-03-23T11:48:19;19.30;75.40
22108;DHT22;11220;48.812;9.128;2024-03-23T11:50:47;19.40;75.60
22108;DHT22;11220;48.812;9.128;2024-03-23T11:53:20;19.30;75.60
22108;DHT22;11220;48.812;9.128;2024-03-23T11:55:53;19.30;75.80
22108;DHT22;11220;48.812;9.128;2024-03-23T11:58:20;19.30;75.80
22108;DHT22;11220;48.812;9.128;2024-03-23T12:00:59;19.30;76.00
22108;DHT22;11220;48.812;9.128;2024-03-23T12:03:26;19.30;76.00
22108;DHT22;11220;48.812;9.128;2024-03-23T12:05:57;19.30;76.00
22108;DHT22;11220;48.812;9.128;2024-03-23T12:08:29;19.30;76.10
22108;DHT22;11220;48.812;9.128;2024-03-23T12:11:12;19.30;76.10
22108;DHT22;11220;48.812;9.128;2024-03-23T12:13:39;19.30;76.00
22108;DHT22;11220;48.812;9.128;2024-03-23T12:18:37;19.30;76.00
22108;DHT22;11220;48.812;9.128;2024-03-23T12:21:03;19.30;76.00
22108;DHT22;11220;48.812;9.128;2024-03-23T12:23:28;19.40;76.00
22108;DHT22;11220;48.812;9.128;2024-03-23T12:25:54;19.30;76.00
22108;DHT22;11220;48.812;9.128;2024-03-23T12:28:19;19.40;76.10
22108;DHT22;11220;48.812;9.128;2024-03-23T12:30:45;19.40;76.20
22108;DHT22;11220;48.812;9.128;2024-03-23T12:33:10;19.40;76.20
22108;DHT22;11220;48.812;9.128;2024-03-23T12:35:36;19.50;76.40
22108;DHT22;11220;48.812;9.128;2024-03-23T12:38:02;19.50;76.30
22108;DHT22;11220;48.812;9.128;2024-03-23T12:40:27;19.50;76.20
22108;DHT22;11220;48.812;9.128;2024-03-23T12:42:53;19.40;76.20
22108;DHT22;11220;48.812;9.128;2024-03-23T12:45:19;19.60;76.30
22108;DHT22;11220;48.812;9.128;2024-03-23T12:47:45;19.50;76.20
22108;DHT22;11220;48.812;9.128;2024-03-23T12:50:10;19.50;76.30
22108;DHT22;11220;48.812;9.128;2024-03-23T12:52:37;19.50;76.20
22108;DHT22;11220;48.812;9.128;2024-03-23T12:55:02;19.60;76.30
22108;DHT22;11220;48.812;9.128;2024-03-23T12:57:31;19.60;76.50
22108;DHT22;11220;48.812;9.128;2024-03-23T12:59:56;19.80;76.90
22108;DHT22;11220;48.812;9.128;2024-03-23T13:02:22;19.60;77.00
22108;DHT22;11220;48.812;9.128;2024-03-23T13:04:52;20.00;77.50
22108;DHT22;11220;48.812;9.128;2024-03-23T13:07:18;19.70;77.50
22108;DHT22;11220;48.812;9.128;2024-03-23T13:09:44;19.70;77.70
22108;DHT22;11220;48.812;9.128;2024-03-23T13:12:10;19.80;77.90
22108;DHT22;11220;48.812;9.128;2024-03-23T13:14:37;19.80;78.10
22108;DHT22;11220;48.812;9.128;2024-03-23T13:17:03;19.90;78.20
22108;DHT22;11220;48.812;9.128;2024-03-23T13:19:29;19.90;78.40
22108;DHT22;11220;48.812;9.128;2024-03-23T13:21:59;20.00;78.60
22108;DHT22;11220;48.812;9.128;2024-03-23T13:24:25;20.00;78.60
22108;DHT22;11220;48.812;9.128;2024-03-23T13:26:52;20.00;78.60
22108;DHT22;11220;48.812;9.128;2024-03-23T13:29:21;20.10;78.70
22108;DHT22;11220;48.812;9.128;2024-03-23T13:31:47;20.10;78.70
22108;DHT22;11220;48.812;9.128;2024-03-23T13:34:13;20.10;78.70
22108;DHT22;11220;48.812;9.128;2024-03-23T13:36:41;20.10;78.50
22108;DHT22;11220;48.812;9.128;2024-03-23T13:39:07;20.10;78.30
22108;DHT22;11220;48.812;9.128;2024-03-23T13:41:43;20.10;78.30
22108;DHT22;11220;48.812;9.128;2024-03-23T13:44:13;20.10;78.20
22108;DHT22;11220;48.812;9.128;2024-03-23T13:46:40;20.10;78.20
22108;DHT22;11220;48.812;9.128;2024-03-23T13:51:49;20.30;78.40
22108;DHT22;11220;48.812;9.128;2024-03-23T13:54:15;20.30;78.10
22108;DHT22;11220;48.812;9.128;2024-03-23T13:56:41;20.40;77.60
22108;DHT22;11220;48.812;9.128;2024-03-23T13:59:06;20.30;76.90
22108;DHT22;11220;48.812;9.128;2024-03-23T14:01:32;20.30;76.20
22108;DHT22;11220;48.812;9.128;2024-03-23T14:03:57;20.30;75.50
22108;DHT22;11220;48.812;9.128;2024-03-23T14:06:23;20.30;74.90
22108;DHT22;11220;48.812;9.128;2024-03-23T14:08:49;20.30;74.60
22108;DHT22;11220;48.812;9.128;2024-03-23T14:11:18;20.60;75.50
22108;DHT22;11220;48.812;9.128;2024-03-23T14:13:44;20.80;74.50
22108;DHT22;11220;48.812;9.128;2024-03-23T14:16:09;20.20;73.90
22108;DHT22;11220;48.812;9.128;2024-03-23T14:18:35;20.10;73.60
22108;DHT22;11220;48.812;9.128;2024-03-23T14:21:01;20.10;73.30
22108;DHT22;11220;48.812;9.128;2024-03-23T14:23:30;20.10;73.00
22108;DHT22;11220;48.812;9.128;2024-03-23T14:25:59;20.10;72.80
22108;DHT22;11220;48.812;9.128;2024-03-23T14:28:25;20.30;72.70
22108;DHT22;11220;48.812;9.128;2024-03-23T14:30:50;20.10;72.50
22108;DHT22;11220;48.812;9.128;2024-03-23T14:33:17;20.10;72.60
22108;DHT22;11220;48.812;9.128;2024-03-23T14:35:43;20.20;72.70
22108;DHT22;11220;48.812;9.128;2024-03-23T14:38:09;20.20;72.80
22108;DHT22;11220;48.812;9.128;2024-03-23T14:40:35;20.60;73.20
22108;DHT22;11220;48.812;9.128;2024-03-23T14:43:01;20.50;73.40
22108;DHT22;11220;48.812;9.128;2024-03-23T14:45:26;20.90;73.80
22108;DHT22;11220;48.812;9.128;2024-03-23T14:47:52;20.60;73.70
22108;DHT22;11220;48.812;9.128;2024-03-23T14:50:18;20.70;73.80
22108;DHT22;11220;48.812;9.128;2024-03-23T14:52:45;20.80;73.90
22108;DHT22;11220;48.812;9.128;2024-03-23T14:55:11;20.80;73.90
22108;DHT22;11220;48.812;9.128;2024-03-23T14:57:37;20.80;73.70
22108;DHT22;11220;48.812;9.128;2024-03-23T15:00:09;20.80;73.70
22108;DHT22;11220;48.812;9.128;2024-03-23T15:02:38;20.80;73.50
22108;DHT22;11220;48.812;9.128;2024-03-23T15:05:04;20.70;73.40
22108;DHT22;11220;48.812;9.128;2024-03-23T15:07:31;20.70;73.40
22108;DHT22;11220;48.812;9.128;2024-03-23T15:09:56;20.80;73.50
22108;DHT22;11220;48.812;9.128;2024-03-23T15:12:22;20.70;73.50
22108;DHT22;11220;48.812;9.128;2024-03-23T15:14:48;20.70;73.70
22108;DHT22;11220;48.812;9.128;2024-03-23T15:17:14;20.70;73.70
22108;DHT22;11220;48.812;9.128;2024-03-23T15:19:40;20.80;73.70
22108;DHT22;11220;48.812;9.128;2024-03-23T15:22:07;20.80;74.80
22108;DHT22;11220;48.812;9.128;2024-03-23T15:24:32;20.90;74.00
22108;DHT22;11220;48.812;9.128;2024-03-23T15:26:59;20.90;74.10
22108;DHT22;11220;48.812;9.128;2024-03-23T15:29:24;21.00;74.00
22108;DHT22;11220;48.812;9.128;2024-03-23T15:31:50;21.00;73.90
22108;DHT22;11220;48.812;9.128;2024-03-23T15:34:21;21.10;73.70
22108;DHT22;11220;48.812;9.128;2024-03-23T15:36:49;21.10;73.40
22108;DHT22;11220;48.812;9.128;2024-03-23T15:39:18;21.20;73.30
22108;DHT22;11220;48.812;9.128;2024-03-23T15:41:47;21.20;73.20
22108;DHT22;11220;48.812;9.128;2024-03-23T15:44:13;21.20;73.20
22108;DHT22;11220;48.812;9.128;2024-03-23T15:46:38;21.20;73.20
22108;DHT22;11220;48.812;9.128;2024-03-23T15:49:04;21.20;73.20
22108;DHT22;11220;48.812;9.128;2024-03-23T15:51:30;21.20;73.00
22108;DHT22;11220;48.812;9.128;2024-03-23T15:54:00;21.10;72.90
22108;DHT22;11220;48.812;9.128;2024-03-23T15:56:26;21.00;72.90
22108;DHT22;11220;48.812;9.128;2024-03-23T15:58:51;21.10;73.00
22108;DHT22;11220;48.812;9.128;2024-03-23T16:01:17;21.30;73.20
22108;DHT22;11220;48.812;9.128;2024-03-23T16:03:43;21.10;73.00
22108;DHT22;11220;48.812;9.128;2024-03-23T16:06:09;21.40;73.00
22108;DHT22;11220;48.812;9.128;2024-03-23T16:08:35;21.40;72.90
22108;DHT22;11220;48.812;9.128;2024-03-23T16:11:02;21.00;72.60
22108;DHT22;11220;48.812;9.128;2024-03-23T16:13:28;21.00;72.70
22108;DHT22;11220;48.812;9.128;2024-03-23T16:16:01;21.00;72.80
22108;DHT22;11220;48.812;9.128;2024-03-23T16:18:29;20.90;72.70
22108;DHT22;11220;48.812;9.128;2024-03-23T16:21:00;20.90;72.70
22108;DHT22;11220;48.812;9.128;2024-03-23T16:23:26;20.90;72.70
22108;DHT22;11220;48.812;9.128;2024-03-23T16:25:53;21.30;72.90
22108;DHT22;11220;48.812;9.128;2024-03-23T16:28:39;20.80;72.50
22108;DHT22;11220;48.812;9.128;2024-03-23T16:31:07;20.80;72.60